Time;durP1;ratioP1;P1;durP2;ratioP2;P2;SDS_P1;SDS_P2;PMS_P1;PMS_P2;Temp;Humidity;BMP_temperature;BMP_pressure;BME280_temperature;BME280_humidity;BME280_pressure;Samples;Min_cycle;Max_cycle;Signal;HPM_P1;HPM_P2
2023/09/28 00:01:20;;;;;;;;;10.00;7.25;;;;;-143.90;100.00;75352.09;4966321;28;104102;-72
2023/09/28 00:03:47;;;;;;;;;10.50;10.25;;;;;-143.90;100.00;75360.34;4962615;28;103724;-72
2023/09/28 00:06:14;;;;;;;;;12.00;11.00;;;;;-143.90;100.00;75356.22;4967362;28;102434;-71
2023/09/28 00:08:41;;;;;;;;;15.50;14.75;;;;;-143.90;100.00;75358.28;4985607;28;102414;-71
2023/09/28 00:11:08;;;;;;;;;13.75;12.25;;;;;-143.90;100.00;75362.44;4969713;28;104140;-72
2023/09/28 00:13:34;;;;;;;;;7.00;7.00;;;;;-143.90;100.00;75364.50;4969547;28;102158;-71
2023/09/28 00:16:01;;;;;;;;;12.75;12.00;;;;;-143.90;100.00;75370.69;4966392;28;102844;-74
2023/09/28 00:18:29;;;;;;;;;12.75;10.75;;;;;-143.90;100.00;75366.56;4971197;28;102323;-71
2023/09/28 00:20:56;;;;;;;;;8.75;7.25;;;;;-143.90;100.00;75370.69;4968250;28;104211;-72
2023/09/28 00:23:22;;;;;;;;;7.25;7.00;;;;;-143.90;100.00;75368.63;4971002;28;101862;-72
2023/09/28 00:25:49;;;;;;;;;8.00;8.00;;;;;-143.90;100.00;75364.50;4966497;28;103310;-72
2023/09/28 00:28:16;;;;;;;;;6.00;6.00;;;;;-143.90;100.00;75368.63;4967530;28;102312;-72
2023/09/28 00:30:44;;;;;;;;;13.00;11.50;;;;;-143.90;100.00;75381.03;4967718;28;103656;-72
2023/09/28 00:33:10;;;;;;;;;14.00;14.00;;;;;-143.90;100.00;75387.22;4964571;28;102190;-72
2023/09/28 00:35:37;;;;;;;;;17.50;16.75;;;;;-143.90;100.00;75391.38;4977453;28;102337;-73
2023/09/28 00:38:05;;;;;;;;;16.00;14.00;;;;;-143.90;100.00;75391.38;4966552;28;102057;-72
2023/09/28 00:40:32;;;;;;;;;14.25;12.00;;;;;-143.90;100.00;75389.31;4966858;28;104033;-73
2023/09/28 00:43:01;;;;;;;;;19.50;16.00;;;;;-143.90;100.00;75391.38;4968398;28;102590;-73
2023/09/28 00:45:28;;;;;;;;;14.00;12.50;;;;;-143.90;100.00;75378.97;4966162;28;105166;-72
2023/09/28 00:48:02;;;;;;;;;15.00;14.00;;;;;-143.90;100.00;75385.16;4962676;28;102069;-73
2023/09/28 00:50:33;;;;;;;;;10.50;10.00;;;;;-143.90;100.00;75374.84;4963485;28;103761;-72
2023/09/28 00:53:02;;;;;;;;;12.00;11.75;;;;;-143.90;100.00;75374.84;4968060;28;102203;-72
2023/09/28 00:55:29;;;;;;;;;12.75;11.25;;;;;-143.90;100.00;75383.09;4963410;28;102926;-73
2023/09/28 00:58:01;;;;;;;;;8.00;7.00;;;;;-143.90;100.00;75381.03;4969174;28;102309;-73
2023/09/28 01:00:31;;;;;;;;;9.25;8.00;;;;;-143.90;100.00;75378.97;4965780;28;103908;-73
2023/09/28 01:03:05;;;;;;;;;8.00;7.00;;;;;-143.90;100.00;75391.38;4957959;28;102339;-73
2023/09/28 01:05:34;;;;;;;;;9.50;8.00;;;;;-143.90;100.00;75374.84;4966092;28;102289;-72
2023/09/28 01:08:14;;;;;;;;;7.75;7.00;;;;;-143.90;100.00;75381.03;4963055;28;101993;-73
2023/09/28 01:10:41;;;;;;;;;10.75;10.50;;;;;-143.90;100.00;75374.84;4969278;28;103986;-74
2023/09/28 01:13:23;;;;;;;;;7.00;7.00;;;;;-143.90;100.00;75387.22;4967470;28;102139;-73
2023/09/28 01:15:50;;;;;;;;;5.00;5.00;;;;;-143.90;100.00;75387.22;4964627;28;102028;-72
2023/09/28 01:18:19;;;;;;;;;6.00;5.00;;;;;-143.90;100.00;75393.44;4969362;28;102009;-73
2023/09/28 01:20:49;;;;;;;;;4.00;4.00;;;;;-143.90;100.00;75397.56;4965822;28;104270;-73
2023/09/28 01:23:15;;;;;;;;;5.75;5.25;;;;;-143.90;100.00;75401.72;4985811;28;102043;-72
2023/09/28 01:25:46;;;;;;;;;5.50;5.50;;;;;-143.90;100.00;75403.78;4964159;28;102044;-73
2023/09/28 01:28:16;;;;;;;;;8.00;6.50;;;;;-143.90;100.00;75403.78;4962636;28;102979;-72
2023/09/28 01:30:44;;;;;;;;;7.25;6.50;;;;;-143.90;100.00;75412.03;4967731;28;104423;-73
2023/09/28 01:33:11;;;;;;;;;8.75;8.00;;;;;-143.90;100.00;75418.25;4966393;28;102271;-73
2023/09/28 01:35:38;;;;;;;;;10.00;7.25;;;;;-143.90;100.00;75422.38;4961622;28;102127;-72
2023/09/28 01:38:10;;;;;;;;;7.00;6.25;;;;;-143.90;100.00;75424.44;4964143;28;105131;-73
2023/09/28 01:40:38;;;;;;;;;6.25;6.00;;;;;-143.90;100.00;75422.38;4966589;28;104170;-73
2023/09/28 01:43:05;;;;;;;;;6.50;6.50;;;;;-143.90;100.00;75430.66;4965200;28;103933;-72
2023/09/28 01:45:33;;;;;;;;;5.50;5.50;;;;;-143.90;100.00;75426.50;4966508;28;102236;-72
2023/09/28 01:48:01;;;;;;;;;5.75;5.00;;;;;-143.90;100.00;75441.00;4970955;28;102523;-72
2023/09/28 01:50:27;;;;;;;;;6.50;6.50;;;;;-143.90;100.00;75438.94;4965345;28;102908;-72
2023/09/28 01:52:54;;;;;;;;;7.00;6.00;;;;;-143.90;100.00;75441.00;4969121;28;103173;-72
2023/09/28 01:55:21;;;;;;;;;6.25;6.00;;;;;-143.90;100.00;75449.25;4964608;28;101985;-71
2023/09/28 01:57:48;;;;;;;;;6.25;6.00;;;;;-143.90;100.00;75457.53;4969680;28;102462;-72
2023/09/28 02:00:18;;;;;;;;;5.50;5.50;;;;;-143.90;100.00;75459.59;4970118;28;103629;-72
2023/09/28 02:02:46;;;;;;;;;4.75;4.75;;;;;-143.90;100.00;75461.66;4967950;28;104906;-72
2023/09/28 02:05:17;;;;;;;;;6.75;6.50;;;;;-143.90;100.00;75461.66;4973712;28;102345;-72
2023/09/28 02:07:45;;;;;;;;;7.00;6.00;;;;;-143.90;100.00;75457.53;4973241;28;102027;-72
2023/09/28 02:10:12;;;;;;;;;15.50;13.25;;;;;-143.90;100.00;75453.41;4975785;28;103619;-72
2023/09/28 02:12:40;;;;;;;;;15.75;14.00;;;;;-143.90;100.00;75449.25;4965764;27;102344;-72
2023/09/28 02:15:09;;;;;;;;;13.50;12.50;;;;;-143.90;100.00;75461.66;4970662;28;102249;-72
2023/09/28 02:17:37;;;;;;;;;14.75;13.50;;;;;-143.90;100.00;75476.13;4968418;28;102406;-71
2023/09/28 02:20:10;;;;;;;;;16.50;14.50;;;;;-143.90;100.00;75465.81;4966886;28;104037;-72
2023/09/28 02:22:44;;;;;;;;;13.75;13.00;;;;;-143.90;100.00;75467.88;4972583;28;102132;-72
2023/09/28 02:25:14;;;;;;;;;10.00;10.00;;;;;-143.90;100.00;75465.81;4985490;28;102007;-72
2023/09/28 02:27:42;;;;;;;;;14.00;11.00;;;;;-143.90;100.00;75463.72;4970010;28;102158;-72
2023/09/28 02:30:14;;;;;;;;;12.00;10.75;;;;;-143.90;100.00;75457.53;4969761;28;103943;-72
2023/09/28 02:32:44;;;;;;;;;10.75;10.75;;;;;-143.90;100.00;75455.47;4972071;28;102061;-72
2023/09/28 02:35:14;;;;;;;;;8.75;6.50;;;;;-143.90;100.00;75461.66;4966588;28;102975;-72
2023/09/28 02:37:43;;;;;;;;;7.50;7.00;;;;;-143.90;100.00;75472.00;4964270;28;102442;-72
2023/09/28 02:40:14;;;;;;;;;6.75;6.75;;;;;-143.90;100.00;75467.88;4969866;28;104723;-73
2023/09/28 02:42:42;;;;;;;;;5.75;5.75;;;;;-143.90;100.00;75474.06;4966295;28;102484;-72
2023/09/28 02:45:13;;;;;;;;;8.50;8.50;;;;;-143.90;100.00;75478.22;4965170;28;101991;-72
2023/09/28 02:47:45;;;;;;;;;7.00;7.00;;;;;-143.90;100.00;75476.13;4966957;28;102093;-73
2023/09/28 02:50:13;;;;;;;;;5.50;4.75;;;;;-143.90;100.00;75476.13;4965492;28;104325;-72
2023/09/28 02:52:42;;;;;;;;;6.50;6.00;;;;;-143.90;100.00;75486.47;4968415;28;102047;-73
2023/09/28 02:55:11;;;;;;;;;6.00;6.00;;;;;-143.90;100.00;75494.75;4967178;28;101956;-72
2023/09/28 02:57:39;;;;;;;;;6.00;5.75;;;;;-143.90;100.00;75490.63;4969105;28;102426;-72
2023/09/28 03:00:14;;;;;;;;;6.00;6.00;;;;;-143.90;100.00;75498.88;4981429;27;104375;-72
2023/09/28 03:02:40;;;;;;;;;3.00;3.00;;;;;-143.90;100.00;75507.16;4967544;28;102360;-73
2023/09/28 03:05:07;;;;;;;;;6.75;6.25;;;;;-143.90;100.00;75507.16;4968044;27;103529;-72
2023/09/28 03:07:35;;;;;;;;;3.00;3.00;;;;;-143.90;100.00;75519.56;4969871;28;103549;-72
2023/09/28 03:10:04;;;;;;;;;6.00;6.00;;;;;-143.90;100.00;75513.34;4967719;28;104358;-72
2023/09/28 03:12:31;;;;;;;;;4.25;4.00;;;;;-143.90;100.00;75507.16;4967751;28;102283;-72
2023/09/28 03:14:58;;;;;;;;;4.00;4.00;;;;;-143.90;100.00;75507.16;4970254;28;102172;-72
2023/09/28 03:17:25;;;;;;;;;6.00;5.00;;;;;-143.90;100.00;75517.50;4967747;28;104262;-73
2023/09/28 03:19:52;;;;;;;;;5.00;5.00;;;;;-143.90;100.00;75515.41;4971229;28;104154;-72
2023/09/28 03:22:19;;;;;;;;;9.50;9.00;;;;;-143.90;100.00;75519.56;4968797;28;102142;-72
2023/09/28 03:24:46;;;;;;;;;7.50;7.25;;;;;-143.90;100.00;75523.69;4981162;28;101962;-72
2023/09/28 03:27:13;;;;;;;;;7.25;7.00;;;;;-143.90;100.00;75521.63;4970022;28;101896;-72
2023/09/28 03:29:41;;;;;;;;;8.75;7.00;;;;;-143.90;100.00;75527.81;4965488;28;104221;-72
2023/09/28 03:32:08;;;;;;;;;6.25;6.25;;;;;-143.90;100.00;75529.91;4966403;28;102084;-72
2023/09/28 03:34:37;;;;;;;;;5.00;5.00;;;;;-143.90;100.00;75538.16;4966869;28;102439;-71
2023/09/28 03:37:04;;;;;;;;;7.75;6.50;;;;;-143.90;100.00;75552.63;4967303;28;102821;-72
2023/09/28 03:39:31;;;;;;;;;5.00;4.50;;;;;-143.90;100.00;75552.63;4969409;28;104209;-72
2023/09/28 03:41:57;;;;;;;;;8.00;7.25;;;;;-143.90;100.00;75560.91;4969934;28;102089;-72
2023/09/28 03:44:24;;;;;;;;;7.00;6.50;;;;;-143.90;100.00;75573.31;4968799;28;102314;-72
2023/09/28 03:46:51;;;;;;;;;9.00;7.25;;;;;-143.90;100.00;75581.59;4966273;28;101979;-72
2023/09/28 03:49:18;;;;;;;;;6.50;6.50;;;;;-143.90;100.00;75571.25;4966629;28;103751;-72
2023/09/28 03:51:44;;;;;;;;;5.50;5.50;;;;;-143.90;100.00;75577.44;4967352;28;102502;-72
2023/09/28 03:54:11;;;;;;;;;6.50;6.50;;;;;-143.90;100.00;75577.44;4971387;28;102319;-72
2023/09/28 03:56:38;;;;;;;;;10.75;10.25;;;;;-143.90;100.00;75575.38;4967188;28;102506;-72
2023/09/28 03:59:05;;;;;;;;;11.75;10.25;;;;;-143.90;100.00;75581.59;4963738;28;104505;-73
2023/09/28 04:01:32;;;;;;;;;13.00;13.00;;;;;-143.90;100.00;75589.84;4959523;28;102183;-73
2023/09/28 04:03:59;;;;;;;;;11.50;9.75;;;;;-143.90;100.00;75589.84;4964140;28;102406;-73
2023/09/28 04:06:25;;;;;;;;;11.50;11.50;;;;;-143.90;100.00;75600.19;4963042;28;102113;-72
2023/09/28 04:08:52;;;;;;;;;9.25;9.00;;;;;-143.90;100.00;75594.00;4967038;28;104263;-72
2023/09/28 04:11:19;;;;;;;;;8.75;8.75;;;;;-143.90;100.00;75589.84;4979756;28;102351;-72
2023/09/28 04:13:46;;;;;;;;;9.75;7.75;;;;;-143.90;100.00;75604.34;4960883;28;102049;-72
2023/09/28 04:16:13;;;;;;;;;10.25;10.25;;;;;-143.90;100.00;75602.25;4964098;28;102173;-72
2023/09/28 04:18:39;;;;;;;;;9.25;9.00;;;;;-143.90;100.00;75608.47;4962014;28;104029;-72
2023/09/28 04:21:06;;;;;;;;;10.00;10.00;;;;;-143.90;100.00;75620.88;4966257;28;102467;-73
2023/09/28 04:23:33;;;;;;;;;16.25;14.50;;;;;-143.90;100.00;75635.34;4965674;28;103636;-73
2023/09/28 04:26:00;;;;;;;;;13.00;11.50;;;;;-143.90;100.00;75635.34;4964972;27;104714;-72
2023/09/28 04:28:26;;;;;;;;;10.50;10.50;;;;;-143.90;100.00;75645.69;4965190;28;108732;-72
2023/09/28 04:30:53;;;;;;;;;14.00;13.00;;;;;-143.90;100.00;75643.63;4962436;28;102277;-73
2023/09/28 04:33:19;;;;;;;;;11.25;10.75;;;;;-143.90;100.00;75643.63;4961314;28;102939;-73
2023/09/28 04:35:46;;;;;;;;;12.50;11.75;;;;;-143.90;100.00;75660.16;4964996;28;102738;-74
2023/09/28 04:38:13;;;;;;;;;14.00;12.25;;;;;-143.90;100.00;75651.88;4964172;28;105381;-74
2023/09/28 04:40:40;;;;;;;;;11.00;11.00;;;;;-143.90;100.00;75651.88;4961862;28;102229;-73
2023/09/28 04:43:08;;;;;;;;;8.50;7.25;;;;;-143.90;100.00;75645.69;4962409;28;102095;-73
2023/09/28 04:45:34;;;;;;;;;6.00;5.75;;;;;-143.90;100.00;75651.88;4966436;28;102452;-73
2023/09/28 04:48:01;;;;;;;;;6.75;5.50;;;;;-143.90;100.00;75649.81;4968742;28;108873;-73
2023/09/28 04:50:28;;;;;;;;;6.25;6.25;;;;;-143.90;100.00;75639.47;4964806;28;102309;-73
2023/09/28 04:52:55;;;;;;;;;7.75;6.00;;;;;-143.90;100.00;75635.34;4972422;28;102354;-74
2023/09/28 04:55:23;;;;;;;;;6.00;6.00;;;;;-143.90;100.00;75635.34;4966676;28;102035;-73
2023/09/28 04:57:52;;;;;;;;;5.25;4.50;;;;;-143.90;100.00;75649.81;4965235;28;104180;-74
2023/09/28 05:00:20;;;;;;;;;7.75;5.50;;;;;-143.90;100.00;75633.28;4965300;28;102737;-72
2023/09/28 05:02:47;;;;;;;;;5.75;5.50;;;;;-143.90;100.00;75651.88;4963243;28;102264;-72
2023/09/28 05:05:15;;;;;;;;;5.00;5.00;;;;;-143.90;100.00;75651.88;4967470;28;102046;-73
2023/09/28 05:07:42;;;;;;;;;4.75;4.25;;;;;-143.90;100.00;75647.75;4967474;28;104368;-73
2023/09/28 05:10:09;;;;;;;;;4.50;4.50;;;;;-143.90;100.00;75656.03;4967098;28;102433;-72
2023/09/28 05:12:36;;;;;;;;;7.25;6.50;;;;;-143.90;100.00;75653.94;4969816;28;102022;-73
2023/09/28 05:15:03;;;;;;;;;6.00;5.50;;;;;-143.90;100.00;75660.16;4965174;28;102174;-72
2023/09/28 05:17:31;;;;;;;;;5.75;5.75;;;;;-143.90;100.00;75651.88;4967716;28;104040;-72
2023/09/28 05:19:58;;;;;;;;;8.00;5.25;;;;;-143.90;100.00;75656.03;4958555;28;102246;-72
2023/09/28 05:22:26;;;;;;;;;4.00;4.00;;;;;-143.90;100.00;75656.03;4967732;28;102372;-72
2023/09/28 05:24:53;;;;;;;;;4.00;4.00;;;;;-143.90;100.00;75653.94;4963167;28;102451;-72
2023/09/28 05:27:21;;;;;;;;;3.00;3.00;;;;;-143.90;100.00;75639.47;4967462;28;104231;-72
2023/09/28 05:29:48;;;;;;;;;6.00;5.00;;;;;-143.90;100.00;75639.47;4968478;28;102829;-72
2023/09/28 05:32:15;;;;;;;;;3.50;3.50;;;;;-143.90;100.00;75627.06;4965027;28;102337;-73
2023/09/28 05:34:42;;;;;;;;;4.00;3.75;;;;;-143.90;100.00;75618.81;4970827;28;102513;-73
2023/09/28 05:37:08;;;;;;;;;5.00;4.25;;;;;-143.90;100.00;75610.53;4967182;28;105114;-73
2023/09/28 05:39:35;;;;;;;;;6.25;6.25;;;;;-143.90;100.00;75589.84;4970877;28;102217;-73
2023/09/28 05:42:03;;;;;;;;;9.75;7.25;;;;;-143.90;100.00;75585.72;4969288;28;102208;-73
2023/09/28 05:44:30;;;;;;;;;17.25;14.25;;;;;-143.90;100.00;75581.59;4969685;28;102360;-72
2023/09/28 05:46:57;;;;;;;;;10.25;7.25;;;;;-143.90;100.00;75571.25;4968886;28;103660;-71
2023/09/28 05:49:23;;;;;;;;;28.25;25.25;;;;;-143.90;100.00;75565.03;4966497;28;102057;-73
2023/09/28 05:51:52;;;;;;;;;25.00;20.50;;;;;-143.90;100.00;75554.72;4972529;28;101781;-73
2023/09/28 05:54:19;;;;;;;;;17.25;17.00;;;;;-143.90;100.00;75546.44;4965399;28;107183;-72
2023/09/28 05:56:45;;;;;;;;;10.00;9.75;;;;;-143.90;100.00;75540.22;4967091;28;104073;-72
2023/09/28 05:59:12;;;;;;;;;17.00;16.50;;;;;-143.90;100.00;75529.91;4962712;28;102787;-72
2023/09/28 06:01:39;;;;;;;;;15.50;14.00;;;;;-143.90;100.00;75523.69;4968980;28;101971;-73
2023/09/28 06:04:06;;;;;;;;;16.75;15.50;;;;;-143.90;100.00;75507.16;4968411;28;102155;-72
2023/09/28 06:06:32;;;;;;;;;11.75;11.50;;;;;-143.90;100.00;75490.63;4959336;28;104145;-71
2023/09/28 06:08:59;;;;;;;;;9.75;9.25;;;;;-143.90;100.00;75478.22;4954514;28;102391;-74
2023/09/28 06:11:26;;;;;;;;;15.50;13.00;;;;;-143.90;100.00;75453.41;4967670;28;102774;-73
2023/09/28 06:13:53;;;;;;;;;14.00;12.00;;;;;-143.90;100.00;75445.13;4972229;28;102487;-71
2023/09/28 06:16:36;;;;;;;;;14.25;12.75;;;;;-143.90;100.00;75418.25;4966687;28;104314;-73
2023/09/28 06:19:03;;;;;;;;;11.25;10.75;;;;;-143.90;100.00;75407.91;4969243;28;102176;-72
2023/09/28 06:21:30;;;;;;;;;26.75;22.00;;;;;-143.90;100.00;75374.84;4966057;28;102210;-73
2023/09/28 06:23:57;;;;;;;;;13.00;13.00;;;;;-143.90;100.00;75370.69;4973868;28;102151;-73
2023/09/28 06:26:23;;;;;;;;;18.25;15.25;;;;;-143.90;100.00;75343.81;4969524;28;105279;-72
2023/09/28 06:29:07;;;;;;;;;21.00;15.75;;;;;-143.90;100.00;75329.34;4984115;28;102168;-73
2023/09/28 06:31:33;;;;;;;;;24.00;21.00;;;;;-143.90;100.00;75308.66;4972020;28;101941;-73
2023/09/28 06:34:00;;;;;;;;;21.25;18.75;;;;;-143.90;100.00;75288.00;4969329;28;102236;-73
2023/09/28 06:36:29;;;;;;;;;16.75;16.75;;;;;-143.90;100.00;75263.19;4966924;28;103705;-73
2023/09/28 06:38:59;;;;;;;;;19.00;17.00;;;;;-143.90;100.00;75238.38;4969364;28;101857;-73
2023/09/28 06:41:26;;;;;;;;;15.75;15.00;;;;;-143.90;100.00;75217.69;4971042;28;103562;-73
2023/09/28 06:43:53;;;;;;;;;12.50;11.00;;;;;-143.90;100.00;75188.75;4974422;27;102120;-73
2023/09/28 06:46:21;;;;;;;;;11.75;11.75;;;;;-143.90;100.00;75172.22;4970024;28;104376;-73
2023/09/28 06:48:49;;;;;;;;;10.75;10.50;;;;;-143.90;100.00;75157.75;4967194;28;102210;-73
2023/09/28 06:51:16;;;;;;;;;14.00;12.75;;;;;-143.90;100.00;75139.16;4979857;28;102320;-73
2023/09/28 06:53:43;;;;;;;;;13.50;9.75;;;;;-143.90;100.00;75114.34;4968099;28;102403;-73
2023/09/28 06:56:11;;;;;;;;;9.25;9.00;;;;;-143.90;100.00;75093.66;4969423;28;103679;-73
2023/09/28 06:58:40;;;;;;;;;4.00;4.00;;;;;-143.90;100.00;75079.19;4971772;28;108254;-73
2023/09/28 07:01:08;;;;;;;;;6.50;6.00;;;;;-143.90;100.00;75046.09;4967736;28;103088;-73
2023/09/28 07:03:34;;;;;;;;;7.00;6.00;;;;;-143.90;100.00;75027.50;4971235;28;102209;-73
2023/09/28 07:06:01;;;;;;;;;6.50;6.00;;;;;-143.90;100.00;75008.91;4970852;28;103407;-73
2023/09/28 07:08:28;;;;;;;;;5.25;4.75;;;;;-143.90;100.00;74982.03;4966483;28;102215;-73
2023/09/28 07:10:55;;;;;;;;;8.50;8.00;;;;;-143.90;100.00;74959.28;4967433;28;102921;-73
2023/09/28 07:13:21;;;;;;;;;6.00;5.50;;;;;-143.90;100.00;74934.47;4966639;28;102170;-73
2023/09/28 07:15:49;;;;;;;;;5.33;5.33;;;;;-143.90;100.00;74915.88;4967255;28;104178;-74
2023/09/28 07:18:16;;;;;;;;;5.75;5.75;;;;;-143.90;100.00;74897.25;4964832;28;102543;-74
2023/09/28 07:20:44;;;;;;;;;6.33;6.33;;;;;-143.90;100.00;74874.53;4971220;28;102700;-71
2023/09/28 07:23:11;;;;;;;;;6.00;6.00;;;;;-143.90;100.00;74853.84;4973661;28;102648;-72
2023/09/28 07:25:37;;;;;;;;;6.33;6.33;;;;;-143.90;100.00;74829.03;4973527;28;108564;-72
2023/09/28 07:28:04;;;;;;;;;5.00;4.00;;;;;-143.90;100.00;74804.25;4970242;28;102140;-72
2023/09/28 07:30:31;;;;;;;;;7.00;6.00;;;;;-143.90;100.00;74795.97;4969004;28;102488;-72
2023/09/28 07:32:58;;;;;;;;;7.33;5.67;;;;;-143.90;100.00;74758.75;4970170;28;102588;-72
2023/09/28 07:35:25;;;;;;;;;3.67;3.00;;;;;-143.90;100.00;74736.03;4965823;28;104174;-74
2023/09/28 07:37:51;;;;;;;;;6.67;5.00;;;;;-143.90;99.35;74713.28;4962989;28;101857;-72
2023/09/28 07:40:24;;;;;;;;;6.33;6.00;;;;;-143.90;98.08;74692.63;4988022;28;102550;-73
2023/09/28 07:43:11;;;;;;;;;9.00;9.00;;;;;-143.90;97.34;74663.66;4985848;28;103016;-73
2023/09/28 07:45:37;;;;;;;;;6.33;6.33;;;;;-143.90;95.52;74647.13;4967964;28;104220;-74
2023/09/28 07:48:05;;;;;;;;;4.33;4.33;;;;;-143.90;93.27;74626.47;4961736;28;102353;-73
2023/09/28 07:50:32;;;;;;;;;5.00;5.00;;;;;-143.90;93.44;74605.78;4968036;28;102434;-72
2023/09/28 07:52:59;;;;;;;;;6.33;5.00;;;;;-143.90;91.38;74589.25;4967170;28;102023;-73
2023/09/28 07:55:26;;;;;;;;;4.00;4.00;;;;;-143.90;89.70;74568.59;4966743;28;105422;-73
2023/09/28 07:57:53;;;;;;;;;7.00;7.00;;;;;-143.90;89.81;74552.03;4972344;28;101884;-73
2023/09/28 08:00:33;;;;;;;;;5.33;5.33;;;;;-143.90;88.38;74527.25;4985017;28;102685;-72
2023/09/28 08:03:00;;;;;;;;;6.67;6.67;;;;;-143.90;87.34;74516.91;4968568;28;102325;-73
2023/09/28 08:05:27;;;;;;;;;7.67;6.33;;;;;-143.90;87.62;74502.44;4962378;28;102915;-73
2023/09/28 08:07:54;;;;;;;;;8.00;6.67;;;;;-143.90;82.33;74481.78;4963763;28;102182;-73
2023/09/28 08:10:40;;;;;;;;;6.00;5.00;;;;;-143.90;81.71;74473.50;4983457;28;101976;-74
2023/09/28 08:13:07;;;;;;;;;7.00;7.00;;;;;-143.90;80.20;74459.03;4963028;28;102349;-73
2023/09/28 08:15:34;;;;;;;;;7.00;6.67;;;;;-143.90;80.48;74440.44;4952833;28;104330;-73
2023/09/28 08:18:03;;;;;;;;;5.00;4.67;;;;;-143.90;79.53;74421.81;4970494;28;102123;-73
2023/09/28 08:20:33;;;;;;;;;5.00;5.00;;;;;-143.90;78.44;74411.50;4971977;28;102421;-73
2023/09/28 08:23:01;;;;;;;;;6.33;5.33;;;;;-143.90;78.54;74399.09;4981565;28;102076;-73
2023/09/28 08:25:31;;;;;;;;;6.33;5.33;;;;;-143.90;77.56;74380.47;4970943;28;104217;-73
2023/09/28 08:27:58;;;;;;;;;5.00;5.00;;;;;-143.90;77.97;74357.75;4972757;28;102171;-73
2023/09/28 08:30:24;;;;;;;;;5.67;4.00;;;;;-143.90;75.20;74353.63;4968739;28;103222;-73
2023/09/28 08:32:52;;;;;;;;;3.33;3.33;;;;;-143.90;76.21;74341.22;4985853;28;102459;-73
2023/09/28 08:35:20;;;;;;;;;3.00;2.67;;;;;-143.90;77.33;74326.75;4940902;28;105427;-74
2023/09/28 08:37:47;;;;;;;;;6.00;5.00;;;;;-143.90;72.86;74312.28;4964490;28;102024;-74
2023/09/28 08:40:14;;;;;;;;;5.00;4.00;;;;;-143.90;75.12;74299.88;4968578;28;102475;-73
2023/09/28 08:42:45;;;;;;;;;5.00;5.00;;;;;-143.90;76.27;74283.34;4970063;28;102288;-73
2023/09/28 08:45:15;;;;;;;;;11.33;9.33;;;;;-143.90;70.66;74277.13;4969148;28;108503;-72
2023/09/28 08:47:52;;;;;;;;;8.67;7.00;;;;;-143.90;69.78;74256.47;4968896;28;102157;-73
2023/09/28 08:50:23;;;;;;;;;6.67;6.67;;;;;-143.90;68.28;74239.94;4965364;28;101983;-73
2023/09/28 08:52:51;;;;;;;;;6.00;6.00;;;;;-143.90;67.24;74229.59;4970237;28;102473;-73
2023/09/28 08:55:18;;;;;;;;;8.00;8.00;;;;;-143.90;71.03;74211.00;4967452;28;103988;-73
2023/09/28 08:57:46;;;;;;;;;5.67;5.00;;;;;-143.90;64.81;74198.59;4963764;28;101882;-73
2023/09/28 09:00:14;;;;;;;;;6.33;6.00;;;;;-143.90;65.20;74175.84;4967236;28;102247;-73
2023/09/28 09:02:44;;;;;;;;;7.00;7.00;;;;;-143.90;69.47;74173.78;4942744;28;102110;-73
2023/09/28 09:05:14;;;;;;;;;5.00;4.00;;;;;-143.90;67.73;74163.47;4968737;28;104045;-73
2023/09/28 09:07:44;;;;;;;;;5.33;5.00;;;;;-143.90;63.87;74167.59;4969594;28;102024;-73
2023/09/28 09:10:18;;;;;;;;;7.33;7.00;;;;;-143.90;65.46;74149.00;4966282;28;101906;-72
2023/09/28 09:12:45;;;;;;;;;7.33;7.00;;;;;-143.90;62.88;74128.31;4966418;28;102090;-71
2023/09/28 09:15:13;;;;;;;;;6.67;5.33;;;;;-143.90;62.12;74118.00;4966815;28;103805;-73
2023/09/28 09:17:40;;;;;;;;;5.00;5.00;;;;;-143.90;61.55;74109.72;4965907;28;102870;-72
2023/09/28 09:20:09;;;;;;;;;4.33;4.33;;;;;-143.90;61.82;74097.31;4957789;28;102078;-72
2023/09/28 09:22:36;;;;;;;;;6.00;5.00;;;;;-143.90;63.21;74084.91;4964278;28;102449;-73
2023/09/28 09:25:07;;;;;;;;;7.67;7.67;;;;;-143.90;60.28;74095.25;4961353;28;103430;-73
2023/09/28 09:27:33;;;;;;;;;7.00;6.00;;;;;-143.90;59.77;74080.78;4960787;28;102342;-72
2023/09/28 09:30:08;;;;;;;;;5.67;5.67;;;;;-143.90;59.44;74072.50;4966038;28;102209;-72
2023/09/28 09:32:37;;;;;;;;;5.00;5.00;;;;;-143.90;56.98;74060.13;4960719;28;110399;-73
2023/09/28 09:35:06;;;;;;;;;8.00;6.00;;;;;-143.90;58.55;74055.97;4948682;28;104016;-72
2023/09/28 09:37:34;;;;;;;;;5.00;5.00;;;;;-143.90;60.99;74035.31;4963485;28;102270;-72
2023/09/28 09:40:13;;;;;;;;;6.00;6.00;;;;;-143.90;54.12;74037.38;4972497;28;102423;-73
2023/09/28 09:42:41;;;;;;;;;5.33;5.00;;;;;-143.90;60.21;74018.78;4960149;28;102178;-71
2023/09/28 09:45:11;;;;;;;;;4.67;4.67;;;;;-143.90;56.46;74014.66;4965841;28;103987;-73
2023/09/28 09:47:48;;;;;;;;;11.33;10.33;;;;;-143.90;53.99;74027.03;4962690;28;102272;-73
2023/09/28 09:50:17;;;;;;;;;16.33;14.67;;;;;-143.90;54.48;74020.84;4952207;28;103241;-73
2023/09/28 09:52:45;;;;;;;;;10.67;9.67;;;;;-143.90;55.43;74006.38;4968087;28;101950;-73
2023/09/28 09:55:12;;;;;;;;;8.00;7.33;;;;;-143.90;53.21;73985.72;4966220;28;104196;-73
2023/09/28 09:57:44;;;;;;;;;11.00;9.00;;;;;-143.90;44.10;73985.72;4965405;28;102924;-72
2023/09/28 10:00:15;;;;;;;;;6.33;6.33;;;;;-143.90;53.97;73977.44;4969139;28;104493;-72
2023/09/28 10:02:44;;;;;;;;;7.00;7.00;;;;;-143.90;48.63;73971.25;4972773;28;102326;-72
2023/09/28 10:05:13;;;;;;;;;6.00;6.00;;;;;-143.90;52.94;73954.72;4963947;28;104048;-73
2023/09/28 10:07:43;;;;;;;;;6.33;6.33;;;;;-143.90;50.70;73944.38;4963862;28;102234;-73
2023/09/28 10:10:18;;;;;;;;;5.33;5.33;;;;;-143.90;47.01;73944.38;4966085;28;102134;-72
2023/09/28 10:12:47;;;;;;;;;6.00;6.00;;;;;-143.90;47.25;73940.25;4963107;28;102130;-71
2023/09/28 10:15:16;;;;;;;;;7.67;7.00;;;;;-143.90;48.65;73927.84;4963531;28;104018;-73
2023/09/28 10:17:46;;;;;;;;;9.67;8.00;;;;;-143.90;45.83;73921.63;4969433;28;103932;-73
2023/09/28 10:20:14;;;;;;;;;6.00;6.00;;;;;-143.90;46.09;73911.31;4969743;28;102303;-73
2023/09/28 10:22:44;;;;;;;;;5.00;4.67;;;;;-143.90;46.03;73894.78;4974517;28;102120;-73
2023/09/28 10:25:15;;;;;;;;;5.00;5.00;;;;;-143.90;43.84;73890.63;4984333;28;104453;-73
2023/09/28 10:27:46;;;;;;;;;3.00;3.00;;;;;-143.90;45.09;73878.25;4972345;28;102116;-73
2023/09/28 10:30:22;;;;;;;;;6.00;6.00;;;;;-143.90;44.80;73880.31;4968660;28;102196;-73
2023/09/28 10:32:52;;;;;;;;;5.33;4.00;;;;;-143.90;46.68;73878.25;4969725;28;102091;-73
2023/09/28 10:35:29;;;;;;;;;3.67;3.33;;;;;-143.90;45.70;73874.09;4972993;28;104242;-73
2023/09/28 10:38:19;;;;;;;;;4.00;3.33;;;;;-143.90;43.70;73874.09;4966429;28;101959;-73
2023/09/28 10:41:02;;;;;;;;;4.00;3.00;;;;;-143.90;44.99;73855.50;4967215;28;103112;-73
2023/09/28 10:43:33;;;;;;;;;2.33;2.33;;;;;-143.90;42.44;73845.16;4972846;28;102573;-73
2023/09/28 10:46:05;;;;;;;;;3.67;3.67;;;;;-143.90;42.56;73841.03;4972848;28;108913;-73
2023/09/28 10:48:40;;;;;;;;;5.00;5.00;;;;;-143.90;41.73;73847.25;4968528;28;102152;-73
2023/09/28 10:51:15;;;;;;;;;3.00;3.00;;;;;-143.90;41.85;73847.25;4970935;28;102855;-71
2023/09/28 10:53:43;;;;;;;;;3.67;3.00;;;;;-143.90;41.13;73851.38;4968122;28;102008;-72
2023/09/28 10:56:11;;;;;;;;;5.00;4.33;;;;;-143.90;42.25;73853.44;4952987;28;103819;-72
2023/09/28 10:58:41;;;;;;;;;6.33;6.33;;;;;-143.90;40.92;73855.50;4964865;28;102232;-73
2023/09/28 11:01:09;;;;;;;;;6.33;6.00;;;;;-143.90;42.72;73849.31;4952377;28;102736;-73
2023/09/28 11:03:36;;;;;;;;;6.00;5.67;;;;;-143.90;40.37;73843.09;4963438;28;102119;-72
2023/09/28 11:06:04;;;;;;;;;8.00;8.00;;;;;-143.90;39.58;73851.38;4968887;28;104066;-72